createdAt,value
2017-10-28T00:00:36.480Z,84.69
2017-10-28T00:01:46.975Z,84.97
2017-10-28T00:02:57.459Z,84.74
2017-10-28T00:04:07.949Z,84.16
2017-10-28T00:05:18.421Z,84.16
2017-10-28T00:06:29.040Z,84.36
2017-10-28T00:07:39.602Z,84.36
2017-10-28T00:08:49.726Z,84.3
2017-10-28T00:10:00.179Z,84.88
2017-10-28T00:11:10.702Z,84.69
2017-10-28T00:12:20.861Z,84.36
2017-10-28T00:13:31.308Z,84.59
2017-10-28T00:14:41.786Z,84.74
2017-10-28T00:15:52.271Z,84.78
2017-10-28T00:17:02.740Z,84.69
2017-10-28T00:18:13.228Z,84.4
2017-10-28T00:19:23.705Z,84.59
2017-10-28T00:20:34.146Z,84.36
2017-10-28T00:21:44.607Z,84.45
2017-10-28T00:22:55.083Z,84.64
2017-10-28T00:24:05.649Z,84.88
2017-10-28T00:25:16.322Z,84.74
2017-10-28T00:26:26.764Z,84.55
2017-10-28T00:27:37.432Z,84.55
2017-10-28T00:28:48.098Z,84.74
2017-10-28T00:29:58.539Z,84.59
2017-10-28T00:31:09.023Z,84.69
2017-10-28T00:32:19.513Z,84.59
2017-10-28T00:33:29.947Z,84.55
2017-10-28T00:34:40.400Z,84.36
2017-10-28T00:35:50.858Z,84.2
2017-10-28T00:37:01.296Z,84.4
2017-10-28T00:38:11.772Z,84.74
2017-10-28T00:39:22.231Z,84.74
2017-10-28T00:40:32.898Z,84.49
2017-10-28T00:41:43.482Z,84.74
2017-10-28T00:42:53.971Z,84.45
2017-10-28T00:44:04.415Z,84.36
2017-10-28T00:45:14.879Z,84.83
2017-10-28T00:46:25.584Z,84.36
2017-10-28T00:47:36.092Z,84.55
2017-10-28T00:48:46.728Z,84.74
2017-10-28T00:49:57.174Z,84.92
2017-10-28T00:51:07.711Z,84.64
2017-10-28T00:52:18.160Z,84.83
2017-10-28T00:53:28.644Z,85.21
2017-10-28T00:54:39.119Z,85.21
2017-10-28T00:55:49.295Z,84.74
2017-10-28T00:56:59.814Z,84.92
2017-10-28T00:58:09.935Z,84.64
2017-10-28T00:59:20.382Z,84.92
2017-10-28T01:00:30.896Z,85.41
2017-10-28T01:01:41.356Z,85.02
2017-10-28T01:02:51.805Z,85.12
2017-10-28T01:04:02.249Z,84.74
2017-10-28T01:05:12.746Z,85.02
2017-10-28T01:06:23.190Z,84.55
2017-10-28T01:07:33.675Z,84.92
2017-10-28T01:08:44.135Z,85.31
2017-10-28T01:09:54.685Z,84.92
2017-10-28T01:11:04.891Z,84.92
2017-10-28T01:12:15.368Z,84.83
2017-10-28T01:13:25.883Z,85.12
2017-10-28T01:14:36.381Z,84.92
2017-10-28T01:15:46.839Z,84.92
2017-10-28T01:16:57.303Z,84.83
2017-10-28T01:18:07.437Z,84.83
2017-10-28T01:19:17.945Z,84.74
2017-10-28T01:20:28.431Z,85.31
2017-10-28T01:21:38.970Z,84.55
2017-10-28T01:22:49.534Z,85.02
2017-10-28T01:23:59.976Z,84.92
2017-10-28T01:25:10.430Z,85.21
2017-10-28T01:26:20.886Z,84.74
2017-10-28T01:27:31.423Z,85.12
2017-10-28T01:28:41.572Z,84.92
2017-10-28T01:29:52.022Z,85.21
2017-10-28T01:31:02.494Z,85.41
2017-10-28T01:32:12.941Z,85.31
2017-10-28T01:33:23.121Z,85.12
2017-10-28T01:34:33.662Z,85.41
2017-10-28T01:35:44.110Z,85.69
2017-10-28T01:36:54.688Z,85.6
2017-10-28T01:38:05.162Z,85.69
2017-10-28T01:39:15.619Z,85.31
2017-10-28T01:40:26.071Z,85.69
2017-10-28T01:41:36.547Z,85.31
2017-10-28T01:42:47.021Z,85.41
2017-10-28T01:43:57.509Z,85.41
2017-10-28T01:45:08.005Z,85.6
2017-10-28T01:46:18.550Z,85.6
2017-10-28T01:47:29.007Z,85.69
2017-10-28T01:48:39.447Z,85.41
2017-10-28T01:49:49.916Z,85.78
2017-10-28T01:51:00.413Z,85.69
2017-10-28T01:52:10.905Z,85.78
2017-10-28T01:53:21.381Z,85.97
2017-10-28T01:54:31.980Z,86.26
2017-10-28T01:55:42.441Z,86.26
2017-10-28T01:56:53.091Z,85.6
2017-10-28T01:58:03.686Z,85.6
2017-10-28T01:59:14.166Z,85.6
2017-10-28T02:00:24.932Z,85.97
2017-10-28T02:01:35.409Z,85.69
2017-10-28T02:02:45.953Z,85.69
2017-10-28T02:03:56.503Z,85.6
2017-10-28T02:05:06.968Z,85.88
2017-10-28T02:06:17.436Z,85.88
2017-10-28T02:07:27.895Z,85.6
2017-10-28T02:08:38.501Z,85.31
2017-10-28T02:09:48.966Z,85.41
2017-10-28T02:10:59.413Z,85.69
2017-10-28T02:12:09.568Z,85.69
2017-10-28T02:13:19.819Z,85.78
2017-10-28T02:14:30.500Z,85.78
2017-10-28T02:15:40.639Z,85.31
2017-10-28T02:16:51.132Z,85.21
2017-10-28T02:18:01.768Z,85.31
2017-10-28T02:19:12.308Z,85.5
2017-10-28T02:20:22.771Z,85.12
2017-10-28T02:21:33.296Z,85.12
2017-10-28T02:22:43.767Z,85.12
2017-10-28T02:23:54.304Z,84.74
2017-10-28T02:25:04.806Z,84.92
2017-10-28T02:26:15.276Z,85.02
2017-10-28T02:27:25.391Z,85.41
2017-10-28T02:28:35.891Z,85.12
2017-10-28T02:29:46.356Z,85.5
2017-10-28T02:30:56.807Z,85.31
2017-10-28T02:32:07.505Z,85.12
2017-10-28T02:33:18.010Z,85.88
2017-10-28T02:34:28.504Z,85.78
2017-10-28T02:35:38.956Z,85.69
2017-10-28T02:36:49.405Z,85.69
2017-10-28T02:37:59.876Z,85.5
2017-10-28T02:39:10.415Z,85.41
2017-10-28T02:40:20.576Z,85.5
2017-10-28T02:41:31.060Z,85.5
2017-10-28T02:42:41.515Z,85.69
2017-10-28T02:43:52.036Z,85.5
2017-10-28T02:45:02.503Z,85.41
2017-10-28T02:46:12.992Z,85.6
2017-10-28T02:47:23.153Z,85.41
2017-10-28T02:48:33.217Z,85.5
2017-10-28T02:49:43.332Z,85.88
2017-10-28T02:50:53.806Z,85.88
2017-10-28T02:52:04.468Z,85.88
2017-10-28T02:53:15.174Z,85.97
2017-10-28T02:54:25.657Z,85.88
2017-10-28T02:55:35.795Z,85.78
2017-10-28T02:56:46.261Z,85.88
2017-10-28T02:57:56.697Z,85.88
2017-10-28T02:59:07.153Z,86.16
2017-10-28T03:00:17.597Z,86.07
2017-10-28T03:01:28.068Z,86.36
2017-10-28T03:02:38.518Z,86.07
2017-10-28T03:03:48.960Z,86.07
2017-10-28T03:04:59.410Z,85.88
2017-10-28T03:06:09.857Z,86.45
2017-10-28T03:07:20.337Z,86.83
2017-10-28T03:08:30.481Z,87.12
2017-10-28T03:09:40.971Z,86.93
2017-10-28T03:10:51.686Z,87.4
2017-10-28T03:12:02.140Z,87.31
2017-10-28T03:13:12.695Z,87.4
2017-10-28T03:14:23.141Z,87.4
2017-10-28T03:15:33.585Z,87.21
2017-10-28T03:16:44.094Z,87.21
2017-10-28T03:17:54.545Z,86.93
2017-10-28T03:19:05.014Z,86.93
2017-10-28T03:20:15.485Z,87.5
2017-10-28T03:21:25.610Z,87.69
2017-10-28T03:22:36.117Z,87.79
2017-10-28T03:23:46.632Z,87.88
2017-10-28T03:24:57.072Z,87.88
2017-10-28T03:26:07.552Z,87.69
2017-10-28T03:27:18.058Z,88.26
2017-10-28T03:28:28.533Z,88.17
2017-10-28T03:29:39.016Z,88.36
2017-10-28T03:30:49.528Z,88.74
2017-10-28T03:32:00.006Z,88.36
2017-10-28T03:33:10.475Z,88.55
2017-10-28T03:34:20.922Z,87.88
2017-10-28T03:35:31.470Z,87.79
2017-10-28T03:36:41.962Z,87.69
2017-10-28T03:37:52.432Z,87.69
2017-10-28T03:39:02.891Z,87.6
2017-10-28T03:40:13.018Z,87.4
2017-10-28T03:41:23.492Z,87.4
2017-10-28T03:42:34.051Z,87.21
2017-10-28T03:43:44.497Z,87.02
2017-10-28T03:44:55.198Z,86.45
2017-10-28T03:46:05.670Z,86.26
2017-10-28T03:47:16.139Z,86.74
2017-10-28T03:48:26.700Z,86.55
2017-10-28T03:49:37.184Z,86.26
2017-10-28T03:50:47.799Z,86.45
2017-10-28T03:51:58.255Z,86.36
2017-10-28T03:53:08.738Z,86.07
2017-10-28T03:54:19.186Z,85.97
2017-10-28T03:55:29.867Z,85.88
2017-10-28T03:56:39.976Z,85.97
2017-10-28T03:57:51.074Z,85.78
2017-10-28T03:59:01.509Z,85.6
2017-10-28T04:00:12.207Z,86.07
2017-10-28T04:01:22.677Z,86.55
2017-10-28T04:02:33.141Z,86.74
2017-10-28T04:03:43.588Z,86.65
2017-10-28T04:04:54.055Z,86.93
2017-10-28T04:06:04.653Z,87.02
2017-10-28T04:07:14.767Z,87.79
2017-10-28T04:08:25.210Z,87.55
2017-10-28T04:09:35.691Z,87.69
2017-10-28T04:10:46.186Z,87.69
2017-10-28T04:11:56.181Z,87.88
2017-10-28T04:13:06.714Z,87.98
2017-10-28T04:14:17.151Z,87.84
2017-10-28T04:15:27.668Z,87.4
2017-10-28T04:16:38.127Z,87.5
2017-10-28T04:17:48.597Z,87.4
2017-10-28T04:18:59.027Z,87.65
2017-10-28T04:20:09.464Z,87.69
2017-10-28T04:21:19.911Z,87.55
2017-10-28T04:22:30.021Z,87.84
2017-10-28T04:23:40.161Z,87.93
2017-10-28T04:24:50.633Z,87.93
2017-10-28T04:26:01.062Z,88.31
2017-10-28T04:27:11.754Z,88.31
2017-10-28T04:28:22.190Z,88.31
2017-10-28T04:29:32.694Z,88.07
2017-10-28T04:30:42.801Z,88.7
2017-10-28T04:31:53.250Z,88.7
2017-10-28T04:33:03.363Z,88.79
2017-10-28T04:34:13.901Z,88.89
2017-10-28T04:35:24.357Z,88.89
2017-10-28T04:36:34.800Z,88.89
2017-10-28T04:37:45.266Z,88.7
2017-10-28T04:38:55.748Z,89.36
2017-10-28T04:40:06.227Z,88.89
2017-10-28T04:41:16.697Z,88.7
2017-10-28T04:42:27.194Z,88.51
2017-10-28T04:43:37.644Z,88.89
2017-10-28T04:44:48.108Z,88.98
2017-10-28T04:45:58.259Z,89.36
2017-10-28T04:47:08.723Z,88.22
2017-10-28T04:48:19.188Z,88.31
2017-10-28T04:49:29.652Z,88.7
2017-10-28T04:50:39.783Z,88.51
2017-10-28T04:51:50.252Z,88.51
2017-10-28T04:53:00.403Z,88.7
2017-10-28T04:54:10.910Z,88.7
2017-10-28T04:55:21.362Z,89.46
2017-10-28T04:56:31.820Z,89.36
2017-10-28T04:57:42.514Z,88.7
2017-10-28T04:58:52.760Z,88.41
2017-10-28T05:00:03.225Z,88.98
2017-10-28T05:01:13.778Z,88.89
2017-10-28T05:02:24.452Z,88.7
2017-10-28T05:03:34.913Z,88.03
2017-10-28T05:04:45.372Z,88.51
2017-10-28T05:05:55.883Z,87.74
2017-10-28T05:07:06.339Z,87.65
2017-10-28T05:08:17.031Z,86.88
2017-10-28T05:09:27.487Z,87.46
2017-10-28T05:10:37.938Z,87.36
2017-10-28T05:11:48.421Z,86.88
2017-10-28T05:12:58.971Z,87.27
2017-10-28T05:14:09.676Z,87.17
2017-10-28T05:15:20.207Z,86.6
2017-10-28T05:16:30.648Z,86.03
2017-10-28T05:17:41.287Z,86.45
2017-10-28T05:18:51.762Z,86.51
2017-10-28T05:20:01.916Z,85.5
2017-10-28T05:21:12.386Z,85.46
2017-10-28T05:22:22.535Z,85.36
2017-10-28T05:23:32.969Z,85.36
2017-10-28T05:24:43.710Z,85.17
2017-10-28T05:25:54.189Z,85.55
2017-10-28T05:27:04.713Z,85.27
2017-10-28T05:28:15.219Z,85.12
2017-10-28T05:29:25.694Z,85.17
2017-10-28T05:30:35.393Z,84.79
2017-10-28T05:31:45.926Z,84.64
2017-10-28T05:32:56.574Z,84.6
2017-10-28T05:34:08.023Z,84.79
2017-10-28T05:35:18.544Z,84.5
2017-10-28T05:36:29.046Z,84.88
2017-10-28T05:37:39.490Z,84.74
2017-10-28T05:38:49.921Z,84.64
2017-10-28T05:40:00.398Z,84.74
2017-10-28T05:41:10.881Z,84.74
2017-10-28T05:42:21.350Z,84.69
2017-10-28T05:43:31.940Z,84.74
2017-10-28T05:44:42.412Z,83.97
2017-10-28T05:45:52.949Z,84.36
2017-10-28T05:47:03.424Z,84.16
2017-10-28T05:48:13.469Z,84.07
2017-10-28T05:49:23.945Z,84.74
2017-10-28T05:50:34.408Z,84.64
2017-10-28T05:51:44.895Z,84.64
2017-10-28T05:52:55.343Z,84.07
2017-10-28T05:54:05.868Z,83.97
2017-10-28T05:55:16.353Z,84.45
2017-10-28T05:56:26.805Z,84.26
2017-10-28T05:57:37.263Z,84.16
2017-10-28T05:58:47.809Z,83.97
2017-10-28T05:59:58.007Z,83.59
2017-10-28T06:01:08.472Z,83.4
2017-10-28T06:02:18.956Z,83.97
2017-10-28T06:03:29.414Z,83.97
2017-10-28T06:04:39.928Z,84.07
2017-10-28T06:05:50.479Z,83.12
2017-10-28T06:07:00.950Z,82.98
2017-10-28T06:08:11.130Z,83.4
2017-10-28T06:09:21.861Z,83.26
2017-10-28T06:10:32.326Z,83.4
2017-10-28T06:11:42.842Z,83.4
2017-10-28T06:12:53.475Z,83.02
2017-10-28T06:14:03.915Z,82.64
2017-10-28T06:15:14.371Z,82.92
2017-10-28T06:16:25.053Z,82.54
2017-10-28T06:17:35.531Z,82.73
2017-10-28T06:18:46.049Z,82.73
2017-10-28T06:19:56.491Z,82.73
2017-10-28T06:21:06.970Z,83.21
2017-10-28T06:22:17.405Z,82.54
2017-10-28T06:23:27.562Z,81.88
2017-10-28T06:24:38.342Z,82.35
2017-10-28T06:25:48.826Z,82.26
2017-10-28T06:26:59.316Z,82.54
2017-10-28T06:28:09.471Z,82.45
2017-10-28T06:29:19.954Z,82.45
2017-10-28T06:30:30.403Z,82.26
2017-10-28T06:31:40.886Z,82.45
2017-10-28T06:32:51.564Z,81.88
2017-10-28T06:34:02.010Z,81.97
2017-10-28T06:35:12.528Z,81.68
2017-10-28T06:36:22.994Z,81.49
2017-10-28T06:37:33.497Z,81.49
2017-10-28T06:38:44.149Z,81.49
2017-10-28T06:39:54.639Z,81.68
2017-10-28T06:41:04.814Z,81.21
2017-10-28T06:42:15.291Z,81.4
2017-10-28T06:43:25.742Z,81.21
2017-10-28T06:44:36.323Z,80.54
2017-10-28T06:45:46.867Z,80.73
2017-10-28T06:46:57.360Z,80.64
2017-10-28T06:48:07.910Z,80.64
2017-10-28T06:49:18.429Z,80.73
2017-10-28T06:50:28.599Z,80.44
2017-10-28T06:51:39.089Z,80.35
2017-10-28T06:52:49.576Z,80.44
2017-10-28T06:54:00.070Z,80.64
2017-10-28T06:55:10.549Z,80.83
2017-10-28T06:56:22.206Z,81.02
2017-10-28T06:57:32.708Z,80.54
2017-10-28T06:58:43.184Z,80.44
2017-10-28T06:59:53.621Z,80.44
2017-10-28T07:01:04.087Z,81.02
2017-10-28T07:02:14.614Z,80.73
2017-10-28T07:03:25.093Z,80.73
2017-10-28T07:04:35.815Z,80.54
2017-10-28T07:05:46.340Z,80.64
2017-10-28T07:06:56.818Z,80.83
2017-10-28T07:08:07.292Z,80.64
2017-10-28T07:09:17.430Z,81.12
2017-10-28T07:10:27.887Z,80.73
2017-10-28T07:11:38.383Z,80.73
2017-10-28T07:12:48.521Z,81.21
2017-10-28T07:13:58.994Z,80.44
2017-10-28T07:15:09.455Z,80.54
2017-10-28T07:16:20.060Z,80.54
2017-10-28T07:17:30.560Z,81.4
2017-10-28T07:18:41.047Z,80.64
2017-10-28T07:19:51.519Z,81.4
2017-10-28T07:21:01.982Z,80.83
2017-10-28T07:22:12.578Z,80.83
2017-10-28T07:23:23.034Z,80.64
2017-10-28T07:24:33.511Z,80.73
2017-10-28T07:25:43.989Z,80.83
2017-10-28T07:26:54.735Z,80.64
2017-10-28T07:28:05.231Z,80.54
2017-10-28T07:29:15.746Z,80.54
2017-10-28T07:30:26.208Z,80.64
2017-10-28T07:31:36.759Z,80.64
2017-10-28T07:32:47.310Z,80.83
2017-10-28T07:33:57.829Z,80.64
2017-10-28T07:35:08.353Z,81.4
2017-10-28T07:36:18.957Z,80.92
2017-10-28T07:37:29.413Z,81.21
2017-10-28T07:38:39.896Z,81.02
2017-10-28T07:39:50.620Z,80.54
2017-10-28T07:41:01.080Z,80.64
2017-10-28T07:42:11.717Z,80.92
2017-10-28T07:43:22.209Z,80.83
2017-10-28T07:44:32.671Z,80.73
2017-10-28T07:45:42.806Z,80.64
2017-10-28T07:46:53.254Z,80.54
2017-10-28T07:48:03.821Z,81.3
2017-10-28T07:49:14.271Z,80.73
2017-10-28T07:50:24.731Z,80.92
2017-10-28T07:51:35.245Z,80.54
2017-10-28T07:52:45.713Z,80.83
2017-10-28T07:53:56.158Z,80.83
2017-10-28T07:55:06.668Z,80.73
2017-10-28T07:56:17.215Z,80.87
2017-10-28T07:57:27.080Z,80.68
2017-10-28T07:58:37.169Z,80.87
2017-10-28T07:59:47.613Z,81.02
2017-10-28T08:00:58.144Z,80.83
2017-10-28T08:02:08.745Z,80.92
2017-10-28T08:03:19.209Z,80.83
2017-10-28T08:04:29.344Z,80.83
2017-10-28T08:05:39.875Z,80.87
2017-10-28T08:06:50.337Z,80.64
2017-10-28T08:08:00.825Z,80.3
2017-10-28T08:09:10.958Z,80.49
2017-10-28T08:10:21.431Z,80.92
2017-10-28T08:11:31.886Z,81.02
2017-10-28T08:12:42.366Z,80.68
2017-10-28T08:13:52.921Z,80.77
2017-10-28T08:15:03.381Z,80.54
2017-10-28T08:16:13.883Z,81.06
2017-10-28T08:17:24.331Z,80.83
2017-10-28T08:18:34.831Z,80.54
2017-10-28T08:19:45.276Z,80.73
2017-10-28T08:20:55.943Z,80.83
2017-10-28T08:22:06.386Z,81.06
2017-10-28T08:23:16.876Z,80.77
2017-10-28T08:24:27.553Z,80.73
2017-10-28T08:25:37.588Z,80.87
2017-10-28T08:26:48.055Z,81.06
2017-10-28T08:27:58.523Z,81.06
2017-10-28T08:29:09.002Z,80.77
2017-10-28T08:30:19.559Z,80.87
2017-10-28T08:31:30.037Z,80.77
2017-10-28T08:32:40.635Z,80.87
2017-10-28T08:33:51.249Z,80.77
2017-10-28T08:35:01.823Z,81.06
2017-10-28T08:36:13.230Z,80.68
2017-10-28T08:37:23.921Z,80.77
2017-10-28T08:38:33.951Z,80.77
2017-10-28T08:39:44.109Z,80.68
2017-10-28T08:40:54.563Z,80.96
2017-10-28T08:42:05.150Z,80.68
2017-10-28T08:43:15.613Z,80.58
2017-10-28T08:44:26.204Z,80.39
2017-10-28T08:45:36.698Z,80.87
2017-10-28T08:46:47.162Z,81.06
2017-10-28T08:47:57.627Z,80.49
2017-10-28T08:49:07.782Z,80.49
2017-10-28T08:50:18.339Z,80.58
2017-10-28T08:51:28.822Z,80.3
2017-10-28T08:52:39.304Z,80.49
2017-10-28T08:53:49.910Z,80.58
2017-10-28T08:55:00.149Z,79.72
2017-10-28T08:56:10.628Z,80.68
2017-10-28T08:57:21.094Z,80.3
2017-10-28T08:58:31.618Z,80.58
2017-10-28T08:59:42.080Z,80.39
2017-10-28T09:00:52.585Z,80.49
2017-10-28T09:02:03.078Z,80.39
2017-10-28T09:03:13.727Z,80.01
2017-10-28T09:04:24.211Z,80.01
2017-10-28T09:05:34.727Z,80.2
2017-10-28T09:06:45.219Z,79.72
2017-10-28T09:07:55.737Z,79.63
2017-10-28T09:09:06.216Z,79.63
2017-10-28T09:10:16.722Z,79.53
2017-10-28T09:11:27.233Z,79.53
2017-10-28T09:12:37.714Z,79.44
2017-10-28T09:13:48.189Z,79.53
2017-10-28T09:14:58.730Z,79.35
2017-10-28T09:16:09.331Z,79.82
2017-10-28T09:17:19.843Z,80.3
2017-10-28T09:18:30.375Z,80.11
2017-10-28T09:19:40.995Z,79.82
2017-10-28T09:20:51.506Z,79.63
2017-10-28T09:22:02.038Z,80.3
2017-10-28T09:23:12.275Z,80.01
2017-10-28T09:24:22.544Z,80.11
2017-10-28T09:25:33.103Z,80.01
2017-10-28T09:26:43.633Z,79.72
2017-10-28T09:27:54.256Z,79.25
2017-10-28T09:29:04.738Z,79.53
2017-10-28T09:30:15.241Z,79.82
2017-10-28T09:31:26.015Z,79.67
2017-10-28T09:32:36.572Z,79.06
2017-10-28T09:33:47.075Z,78.67
2017-10-28T09:34:57.566Z,79
2017-10-28T09:36:08.037Z,79.15
2017-10-28T09:37:18.529Z,79.19
2017-10-28T09:38:29.096Z,78.72
2017-10-28T09:39:39.592Z,79
2017-10-28T09:40:50.094Z,78.96
2017-10-28T09:42:00.546Z,79.38
2017-10-28T09:43:11.099Z,79
2017-10-28T09:44:21.633Z,79.1
2017-10-28T09:45:32.089Z,78.96
2017-10-28T09:46:42.252Z,79
2017-10-28T09:47:52.804Z,79
2017-10-28T09:49:03.311Z,79.1
2017-10-28T09:50:13.838Z,79.28
2017-10-28T09:51:24.148Z,79.38
2017-10-28T09:52:34.706Z,78.91
2017-10-28T09:53:45.223Z,78.72
2017-10-28T09:54:55.717Z,79
2017-10-28T09:56:06.304Z,79.25
2017-10-28T09:57:16.820Z,78.62
2017-10-28T09:58:27.294Z,78.91
2017-10-28T09:59:37.844Z,78.62
2017-10-28T10:00:48.341Z,78.43
2017-10-28T10:01:58.883Z,78.05
2017-10-28T10:03:09.033Z,78.81
2017-10-28T10:04:19.525Z,78.23
2017-10-28T10:05:30.046Z,77.76
2017-10-28T10:06:40.548Z,78.14
2017-10-28T10:07:50.702Z,78.14
2017-10-28T10:09:01.216Z,78.23
2017-10-28T10:10:11.729Z,78.14
2017-10-28T10:11:22.229Z,77.76
2017-10-28T10:12:32.720Z,77.95
2017-10-28T10:13:43.235Z,78.23
2017-10-28T10:14:53.808Z,77.38
2017-10-28T10:16:04.335Z,77.19
2017-10-28T10:17:14.889Z,77
2017-10-28T10:18:25.046Z,76.81
2017-10-28T10:19:35.564Z,76.62
2017-10-28T10:20:46.028Z,76.9
2017-10-28T10:21:56.574Z,77.09
2017-10-28T10:23:07.052Z,76.9
2017-10-28T10:24:17.211Z,77.09
2017-10-28T10:25:27.832Z,76.52
2017-10-28T10:26:38.352Z,76.14
2017-10-28T10:27:48.828Z,75.95
2017-10-28T10:28:59.436Z,75.57
2017-10-28T10:30:09.911Z,75.95
2017-10-28T10:31:20.434Z,75.95
2017-10-28T10:32:31.005Z,76.23
2017-10-28T10:33:41.556Z,75.95
2017-10-28T10:34:52.062Z,75.95
2017-10-28T10:36:02.706Z,76.04
2017-10-28T10:37:13.220Z,76.23
2017-10-28T10:38:23.731Z,75.76
2017-10-28T10:39:34.309Z,76.14
2017-10-28T10:40:44.806Z,76.14
2017-10-28T10:41:55.335Z,75.85
2017-10-28T10:43:05.990Z,75.95
2017-10-28T10:44:16.480Z,75.95
2017-10-28T10:45:26.964Z,75.95
2017-10-28T10:46:37.453Z,75.76
2017-10-28T10:47:47.939Z,76.23
2017-10-28T10:48:58.466Z,75.95
2017-10-28T10:50:08.622Z,76.04
2017-10-28T10:51:19.311Z,75.85
2017-10-28T10:52:30.434Z,76.14
2017-10-28T10:53:40.908Z,76.14
2017-10-28T10:54:51.569Z,75.85
2017-10-28T10:56:02.331Z,76.04
2017-10-28T10:57:12.791Z,75.95
2017-10-28T10:58:23.335Z,75.95
2017-10-28T10:59:33.898Z,75.95
2017-10-28T11:00:44.363Z,75.95
2017-10-28T11:01:54.884Z,76.04
2017-10-28T11:03:05.363Z,75.85
2017-10-28T11:04:15.864Z,76.23
2017-10-28T11:05:26.398Z,75.85
2017-10-28T11:06:36.550Z,75.95
2017-10-28T11:07:47.101Z,75.66
2017-10-28T11:08:57.612Z,75.85
2017-10-28T11:10:08.127Z,75.76
2017-10-28T11:11:18.678Z,75.66
2017-10-28T11:12:29.196Z,75.28
2017-10-28T11:13:40.656Z,75.95
2017-10-28T11:14:51.149Z,76.04
2017-10-28T11:16:01.642Z,76.04
2017-10-28T11:17:12.158Z,76.23
2017-10-28T11:18:22.647Z,75.95
2017-10-28T11:19:33.147Z,75.76
2017-10-28T11:20:43.882Z,75.95
2017-10-28T11:21:54.437Z,76.08
2017-10-28T11:23:04.950Z,76.04
2017-10-28T11:24:15.445Z,76.14
2017-10-28T11:25:25.948Z,75.6
2017-10-28T11:26:36.407Z,76.23
2017-10-28T11:27:46.911Z,76.14
2017-10-28T11:28:57.417Z,76.14
2017-10-28T11:30:07.907Z,75.76
2017-10-28T11:31:18.376Z,75.57
2017-10-28T11:32:28.953Z,75.76
2017-10-28T11:33:39.413Z,75.76
2017-10-28T11:34:49.590Z,76.23
2017-10-28T11:36:00.155Z,75.85
2017-10-28T11:37:10.654Z,76.04
2017-10-28T11:38:21.524Z,75.95
2017-10-28T11:39:32.039Z,75.85
2017-10-28T11:40:42.546Z,75.85
2017-10-28T11:41:53.040Z,75.95
2017-10-28T11:43:03.509Z,76.33
2017-10-28T11:44:14.060Z,76.14
2017-10-28T11:45:24.511Z,76.33
2017-10-28T11:46:35.040Z,76.04
2017-10-28T11:47:45.550Z,76.14
2017-10-28T11:48:56.032Z,76.04
2017-10-28T11:50:06.552Z,76.23
2017-10-28T11:51:16.997Z,76.14
2017-10-28T11:52:27.490Z,76.42
2017-10-28T11:53:37.984Z,75.95
2017-10-28T11:54:48.449Z,76.14
2017-10-28T11:55:58.910Z,75.57
2017-10-28T11:57:09.026Z,75.47
2017-10-28T11:58:19.524Z,75.28
2017-10-28T11:59:30.007Z,76.04
2017-10-28T12:00:40.379Z,75.66
2017-10-28T12:01:50.734Z,76.23
2017-10-28T12:03:01.258Z,76.52
2017-10-28T12:04:11.822Z,75.95
2017-10-28T12:05:22.299Z,76.14
2017-10-28T12:06:32.774Z,75.85
2017-10-28T12:07:43.254Z,75.95
2017-10-28T12:08:53.725Z,76.23
2017-10-28T12:10:04.406Z,76.23
2017-10-28T12:11:14.977Z,75.85
2017-10-28T12:12:25.461Z,75.66
2017-10-28T12:13:36.209Z,75.76
2017-10-28T12:14:46.692Z,75.76
2017-10-28T12:15:57.184Z,75.76
2017-10-28T12:17:07.664Z,75.76
2017-10-28T12:18:17.851Z,75.47
2017-10-28T12:19:28.433Z,75.47
2017-10-28T12:20:38.918Z,75.66
2017-10-28T12:21:49.425Z,75.66
2017-10-28T12:22:59.919Z,75.28
2017-10-28T12:24:10.410Z,75.47
2017-10-28T12:25:20.873Z,74.8
2017-10-28T12:26:31.405Z,74.61
2017-10-28T12:27:41.956Z,74.61
2017-10-28T12:28:52.441Z,74.71
2017-10-28T12:30:02.981Z,74.71
2017-10-28T12:31:13.052Z,74.52
2017-10-28T12:32:23.528Z,74.42
2017-10-28T12:33:33.697Z,73.85
2017-10-28T12:34:44.293Z,74.04
2017-10-28T12:35:54.782Z,74.52
2017-10-28T12:37:05.362Z,74.32
2017-10-28T12:38:16.017Z,74.52
2017-10-28T12:39:26.574Z,74.99
2017-10-28T12:40:37.065Z,74.71
2017-10-28T12:41:47.590Z,74.71
2017-10-28T12:42:57.763Z,74.8
2017-10-28T12:44:08.255Z,74.8
2017-10-28T12:45:18.774Z,74.61
2017-10-28T12:46:29.317Z,74.71
2017-10-28T12:47:39.804Z,74.9
2017-10-28T12:48:50.321Z,75.09
2017-10-28T12:50:01.049Z,75.09
2017-10-28T12:51:11.557Z,75.09
2017-10-28T12:52:22.089Z,74.71
2017-10-28T12:53:32.704Z,75.18
2017-10-28T12:54:43.252Z,74.52
2017-10-28T12:55:53.956Z,74.8
2017-10-28T12:57:04.444Z,74.52
2017-10-28T12:58:15.024Z,74.99
2017-10-28T12:59:25.567Z,74.9
2017-10-28T13:00:36.081Z,75.09
2017-10-28T13:01:45.873Z,74.9
2017-10-28T13:02:56.476Z,75.09
2017-10-28T13:04:06.943Z,74.99
2017-10-28T13:05:17.491Z,74.52
2017-10-28T13:06:28.070Z,74.52
2017-10-28T13:07:38.551Z,74.99
2017-10-28T13:08:48.733Z,74.99
2017-10-28T13:09:59.295Z,74.52
2017-10-28T13:11:09.765Z,74.23
2017-10-28T13:12:21.224Z,74.71
2017-10-28T13:13:31.753Z,74.52
2017-10-28T13:14:42.231Z,74.52
2017-10-28T13:15:52.846Z,74.71
2017-10-28T13:17:03.345Z,74.61
2017-10-28T13:18:13.867Z,74.32
2017-10-28T13:19:24.491Z,74.8
2017-10-28T13:20:34.994Z,74.71
2017-10-28T13:21:45.484Z,74.71
2017-10-28T13:22:56.045Z,74.61
2017-10-28T13:24:06.587Z,74.32
2017-10-28T13:25:16.796Z,74.52
2017-10-28T13:26:27.355Z,74.61
2017-10-28T13:27:37.848Z,74.32
2017-10-28T13:28:48.345Z,74.13
2017-10-28T13:29:58.406Z,74.42
2017-10-28T13:31:08.906Z,74.13
2017-10-28T13:32:19.435Z,74.04
2017-10-28T13:33:29.937Z,74.32
2017-10-28T13:34:40.123Z,73.75
2017-10-28T13:35:50.708Z,73.56
2017-10-28T13:37:01.216Z,74.13
2017-10-28T13:38:11.700Z,73.85
2017-10-28T13:39:22.209Z,74.13
2017-10-28T13:40:32.714Z,74.71
2017-10-28T13:41:43.198Z,74.52
2017-10-28T13:42:53.676Z,74.52
2017-10-28T13:44:04.376Z,74.71
2017-10-28T13:45:14.848Z,74.8
2017-10-28T13:46:24.984Z,74.9
2017-10-28T13:47:35.237Z,74.61
2017-10-28T13:48:45.498Z,74.71
2017-10-28T13:49:56.103Z,74.52
2017-10-28T13:51:07.624Z,74.71
2017-10-28T13:52:18.094Z,74.71
2017-10-28T13:53:28.885Z,74.42
2017-10-28T13:54:39.462Z,74.52
2017-10-28T13:55:49.980Z,74.71
2017-10-28T13:57:00.451Z,74.52
2017-10-28T13:58:10.959Z,74.71
2017-10-28T13:59:21.468Z,74.9
2017-10-28T14:00:32.067Z,75.09
2017-10-28T14:01:42.247Z,75.57
2017-10-28T14:02:52.988Z,74.42
2017-10-28T14:04:03.700Z,74.32
2017-10-28T14:05:14.246Z,74.61
2017-10-28T14:06:24.744Z,74.52
2017-10-28T14:07:35.242Z,74.61
2017-10-28T14:08:45.778Z,74.8
2017-10-28T14:09:56.272Z,74.8
2017-10-28T14:11:06.834Z,74.8
2017-10-28T14:12:16.981Z,74.8
2017-10-28T14:13:27.461Z,74.8
2017-10-28T14:14:37.918Z,74.52
2017-10-28T14:15:48.103Z,74.23
2017-10-28T14:16:58.655Z,74.71
2017-10-28T14:18:09.239Z,74.61
2017-10-28T14:19:19.756Z,74.52
2017-10-28T14:20:30.228Z,75.18
2017-10-28T14:21:40.733Z,74.42
2017-10-28T14:22:51.233Z,74.52
2017-10-28T14:24:01.715Z,74.9
2017-10-28T14:25:12.206Z,74.8
2017-10-28T14:26:22.801Z,74.8
2017-10-28T14:27:33.326Z,74.52
2017-10-28T14:28:43.814Z,75.09
2017-10-28T14:29:55.336Z,74.8
2017-10-28T14:31:05.812Z,74.99
2017-10-28T14:32:16.784Z,75.09
2017-10-28T14:33:27.271Z,75.28
2017-10-28T14:34:37.435Z,75.09
2017-10-28T14:35:47.936Z,75.09
2017-10-28T14:36:58.106Z,75.37
2017-10-28T14:38:08.592Z,75.09
2017-10-28T14:39:19.149Z,75.09
2017-10-28T14:40:29.712Z,74.99
2017-10-28T14:41:40.346Z,75.09
2017-10-28T14:42:50.957Z,74.99
2017-10-28T14:44:01.722Z,74.99
2017-10-28T14:45:12.215Z,75.57
2017-10-28T14:46:22.695Z,75.66
2017-10-28T14:47:33.181Z,75.47
2017-10-28T14:48:43.684Z,75.28
2017-10-28T14:49:54.294Z,75.47
2017-10-28T14:51:04.778Z,74.9
2017-10-28T14:52:15.253Z,75.37
2017-10-28T14:53:25.780Z,75.47
2017-10-28T14:54:36.303Z,75.76
2017-10-28T14:55:46.805Z,76.14
2017-10-28T14:56:56.998Z,76.04
2017-10-28T14:58:07.540Z,75.95
2017-10-28T14:59:18.060Z,75.66
2017-10-28T15:00:28.622Z,76.04
2017-10-28T15:01:39.121Z,76.04
2017-10-28T15:02:49.414Z,75.85
2017-10-28T15:04:00.044Z,76.33
2017-10-28T15:05:10.536Z,76.42
2017-10-28T15:06:21.135Z,76.23
2017-10-28T15:07:31.788Z,76.52
2017-10-28T15:08:42.303Z,76.71
2017-10-28T15:09:52.337Z,76.71
2017-10-28T15:11:02.948Z,76.42
2017-10-28T15:12:13.443Z,76.9